PWSweather.com
Personal Weather Stations
Station Observations
SONYA
Sergiev PosadRU

Sergiev PosadRU

Lat: 56.28148651, Lon: 38.05462646

Elevation: 741

Station Type: Fine offset WH1091

High Low Average
Temperature 25.9°F-3.4°F 6.1°F-14.4°F 17.5°F-8.1°F
Dew Point 15.0°F-9.4°F -0.9°F-18.3°F 6.7°F-14.1°F
Winds 12.1 mph -19.5 mph - Calm Calm 3.6 mph 5.8 mph
Wind Gusts 17.4 mph28.0 mph -- 5.7 mph9.2 mph
Humidity 75% 19% 53%
Pressure 29.74 in1007.10 in 29.47 in998.00 in -
Precipitation 0.00 in0.00 in - -
Hour Temp Dew Point Humidity Winds Wind Gusts Pressure Precip Precip Rate Daily Precip Total
12:02 AM 15.1°F-9.4°C 5.6°F-14.7°C 53% 1.6 mph SW2.6 kmh SW 2.2 mph3.5 kmh 29.59 in1002.0 mb 0.00 in0.0 mm 0.00 in0.0 mm 0.00 in0.0 mm
12:07 AM 14.9°F-9.5°C 5.4°F-14.8°C 53% 1.6 mph NW2.6 kmh NW 2.2 mph3.5 kmh 29.60 in1002.4 mb 0.00 in0.0 mm 0.00 in0.0 mm 0.00 in0.0 mm
12:12 AM 14.7°F-9.6°C 5.2°F-14.9°C 53% 1.6 mph SW2.6 kmh SW 2.2 mph3.5 kmh 29.60 in1002.4 mb 0.00 in0.0 mm 0.00 in0.0 mm 0.00 in0.0 mm
12:17 AM 14.5°F-9.7°C 5.3°F-14.8°C 54% 1.6 mph NW2.6 kmh NW 3.8 mph6.1 kmh 29.60 in1002.4 mb 0.00 in0.0 mm 0.00 in0.0 mm 0.00 in0.0 mm
12:22 AM 14.4°F-9.8°C 5.2°F-14.9°C 54% 0.7 mph 1.1 kmh 2.2 mph3.5 kmh 29.60 in1002.4 mb 0.00 in0.0 mm 0.00 in0.0 mm 0.00 in0.0 mm
12:27 AM 14.4°F-9.8°C 5.2°F-14.9°C 54% 3.1 mph 5.0 kmh 4.5 mph7.2 kmh 29.61 in1002.7 mb 0.00 in0.0 mm 0.00 in0.0 mm 0.00 in0.0 mm
12:32 AM 14.4°F-9.8°C 5.2°F-14.9°C 54% 2.2 mph SW3.5 kmh SW 3.1 mph5.0 kmh 29.61 in1002.7 mb 0.00 in0.0 mm 0.00 in0.0 mm 0.00 in0.0 mm
12:37 AM 14.4°F-9.8°C 5.2°F-14.9°C 54% 1.6 mph S2.6 kmh S 2.2 mph3.5 kmh 29.61 in1002.7 mb 0.00 in0.0 mm 0.00 in0.0 mm 0.00 in0.0 mm
12:42 AM 14.2°F-9.9°C 5.3°F-14.8°C 55% 0.7 mph W1.1 kmh W 2.2 mph3.5 kmh 29.61 in1002.7 mb 0.00 in0.0 mm 0.00 in0.0 mm 0.00 in0.0 mm
12:47 AM 14.2°F-9.9°C 5.3°F-14.8°C 55% 2.2 mph 3.5 kmh 3.1 mph5.0 kmh 29.62 in1003.0 mb 0.00 in0.0 mm 0.00 in0.0 mm 0.00 in0.0 mm
12:52 AM 14.2°F-9.9°C 5.3°F-14.8°C 55% 2.2 mph 3.5 kmh 6.0 mph9.7 kmh 29.62 in1003.0 mb 0.00 in0.0 mm 0.00 in0.0 mm 0.00 in0.0 mm
12:57 AM 14.2°F-9.9°C 5.5°F-14.7°C 56% 1.6 mph SW2.6 kmh SW 2.2 mph3.5 kmh 29.62 in1003.0 mb 0.00 in0.0 mm 0.00 in0.0 mm 0.00 in0.0 mm
01:02 AM 14.0°F-10.0°C 5.4°F-14.8°C 56% 1.6 mph W2.6 kmh W 3.1 mph5.0 kmh 29.63 in1003.4 mb 0.00 in0.0 mm 0.00 in0.0 mm 0.00 in0.0 mm
01:07 AM 13.8°F-10.1°C 5.4°F-14.8°C 57% 1.6 mph NW2.6 kmh NW 3.1 mph5.0 kmh 29.62 in1003.0 mb 0.00 in0.0 mm 0.00 in0.0 mm 0.00 in0.0 mm
01:12 AM 13.8°F-10.1°C 5.4°F-14.8°C 57% 0.7 mph NE1.1 kmh NE 3.1 mph5.0 kmh 29.63 in1003.4 mb 0.00 in0.0 mm 0.00 in0.0 mm 0.00 in0.0 mm
01:17 AM 14.0°F-10.0°C 5.6°F-14.7°C 57% 0.7 mph SW1.1 kmh SW 2.2 mph3.5 kmh 29.63 in1003.4 mb 0.00 in0.0 mm 0.00 in0.0 mm 0.00 in0.0 mm
01:22 AM 13.8°F-10.1°C 5.7°F-14.6°C 58% 1.6 mph SE2.6 kmh SE 3.1 mph5.0 kmh 29.63 in1003.4 mb 0.00 in0.0 mm 0.00 in0.0 mm 0.00 in0.0 mm
01:27 AM 13.8°F-10.1°C 5.9°F-14.5°C 59% 2.2 mph E3.5 kmh E 4.5 mph7.2 kmh 29.64 in1003.7 mb 0.00 in0.0 mm 0.00 in0.0 mm 0.00 in0.0 mm
01:32 AM 13.8°F-10.1°C 5.9°F-14.5°C 59% 1.6 mph NE2.6 kmh NE 4.5 mph7.2 kmh 29.64 in1003.7 mb 0.00 in0.0 mm 0.00 in0.0 mm 0.00 in0.0 mm
01:37 AM 13.6°F-10.2°C 5.8°F-14.6°C 59% 1.6 mph SE2.6 kmh SE 3.1 mph5.0 kmh 29.65 in1004.1 mb 0.00 in0.0 mm 0.00 in0.0 mm 0.00 in0.0 mm
01:42 AM 13.6°F-10.2°C 6.0°F-14.4°C 60% 2.2 mph W3.5 kmh W 3.8 mph6.1 kmh 29.65 in1004.1 mb 0.00 in0.0 mm 0.00 in0.0 mm 0.00 in0.0 mm
01:47 AM 13.6°F-10.2°C 6.0°F-14.4°C 60% 0.7 mph NW1.1 kmh NW 1.6 mph2.6 kmh 29.65 in1004.1 mb 0.00 in0.0 mm 0.00 in0.0 mm 0.00 in0.0 mm
01:52 AM 13.5°F-10.3°C 5.8°F-14.6°C 60% 0.7 mph S1.1 kmh S 1.6 mph2.6 kmh 29.65 in1004.1 mb 0.00 in0.0 mm 0.00 in0.0 mm 0.00 in0.0 mm
01:57 AM 13.3°F-10.4°C 5.9°F-14.5°C 61% 0.7 mph SW1.1 kmh SW 1.6 mph2.6 kmh 29.65 in1004.1 mb 0.00 in0.0 mm 0.00 in0.0 mm 0.00 in0.0 mm
02:02 AM 13.3°F-10.4°C 5.9°F-14.5°C 61% Calm Calm 0.7 mph1.1 kmh 29.66 in1004.4 mb 0.00 in0.0 mm 0.00 in0.0 mm 0.00 in0.0 mm
02:07 AM 13.3°F-10.4°C 5.9°F-14.5°C 61% Calm Calm 2.2 mph3.5 kmh 29.66 in1004.4 mb 0.00 in0.0 mm 0.00 in0.0 mm 0.00 in0.0 mm
02:12 AM 13.3°F-10.4°C 5.9°F-14.5°C 61% 1.6 mph NW2.6 kmh NW 3.1 mph5.0 kmh 29.66 in1004.4 mb 0.00 in0.0 mm 0.00 in0.0 mm 0.00 in0.0 mm
02:17 AM 13.1°F-10.5°C 5.7°F-14.6°C 61% 1.6 mph E2.6 kmh E 3.1 mph5.0 kmh 29.66 in1004.4 mb 0.00 in0.0 mm 0.00 in0.0 mm 0.00 in0.0 mm
02:22 AM 12.9°F-10.6°C 5.8°F-14.6°C 62% 2.2 mph 3.5 kmh 3.8 mph6.1 kmh 29.66 in1004.4 mb 0.00 in0.0 mm 0.00 in0.0 mm 0.00 in0.0 mm
02:27 AM 12.7°F-10.7°C 5.6°F-14.7°C 62% 1.6 mph NW2.6 kmh NW 3.1 mph5.0 kmh 29.66 in1004.4 mb 0.00 in0.0 mm 0.00 in0.0 mm 0.00 in0.0 mm
02:32 AM 12.6°F-10.8°C 5.5°F-14.7°C 62% 0.7 mph 1.1 kmh 3.1 mph5.0 kmh 29.66 in1004.4 mb 0.00 in0.0 mm 0.00 in0.0 mm 0.00 in0.0 mm
02:37 AM 12.6°F-10.8°C 5.5°F-14.7°C 62% 1.6 mph SW2.6 kmh SW 3.1 mph5.0 kmh 29.66 in1004.4 mb 0.00 in0.0 mm 0.00 in0.0 mm 0.00 in0.0 mm
02:42 AM 12.4°F-10.9°C 5.3°F-14.8°C 62% 0.7 mph SW1.1 kmh SW 2.2 mph3.5 kmh 29.66 in1004.4 mb 0.00 in0.0 mm 0.00 in0.0 mm 0.00 in0.0 mm
02:47 AM 12.4°F-10.9°C 5.3°F-14.8°C 62% 2.2 mph SW3.5 kmh SW 5.4 mph8.7 kmh 29.66 in1004.4 mb 0.00 in0.0 mm 0.00 in0.0 mm 0.00 in0.0 mm
02:52 AM 12.4°F-10.9°C 5.3°F-14.8°C 62% 0.7 mph SW1.1 kmh SW 2.2 mph3.5 kmh 29.66 in1004.4 mb 0.00 in0.0 mm 0.00 in0.0 mm 0.00 in0.0 mm
02:57 AM 12.4°F-10.9°C 5.5°F-14.7°C 63% 1.6 mph SW2.6 kmh SW 2.2 mph3.5 kmh 29.66 in1004.4 mb 0.00 in0.0 mm 0.00 in0.0 mm 0.00 in0.0 mm
03:02 AM 12.4°F-10.9°C 5.5°F-14.7°C 63% 1.6 mph 2.6 kmh 3.8 mph6.1 kmh 29.66 in1004.4 mb 0.00 in0.0 mm 0.00 in0.0 mm 0.00 in0.0 mm
03:07 AM 12.2°F-11.0°C 5.4°F-14.8°C 63% 2.2 mph NW3.5 kmh NW 4.5 mph7.2 kmh 29.67 in1004.7 mb 0.00 in0.0 mm 0.00 in0.0 mm 0.00 in0.0 mm
03:12 AM 12.2°F-11.0°C 5.4°F-14.8°C 63% 0.7 mph WNW1.1 kmh WNW 2.2 mph3.5 kmh 29.67 in1004.7 mb 0.00 in0.0 mm 0.00 in0.0 mm 0.00 in0.0 mm
03:17 AM 11.8°F-11.2°C 5.2°F-14.9°C 64% 1.6 mph WNW2.6 kmh WNW 3.1 mph5.0 kmh 29.67 in1004.7 mb 0.00 in0.0 mm 0.00 in0.0 mm 0.00 in0.0 mm
03:22 AM 11.8°F-11.2°C 5.2°F-14.9°C 64% 1.6 mph WSW2.6 kmh WSW 3.1 mph5.0 kmh 29.67 in1004.7 mb 0.00 in0.0 mm 0.00 in0.0 mm 0.00 in0.0 mm
03:27 AM 11.8°F-11.2°C 5.2°F-14.9°C 64% 0.7 mph NW1.1 kmh NW 2.2 mph3.5 kmh 29.67 in1004.7 mb 0.00 in0.0 mm 0.00 in0.0 mm 0.00 in0.0 mm
03:32 AM 11.7°F-11.3°C 5.1°F-14.9°C 64% Calm Calm 1.6 mph2.6 kmh 29.67 in1004.7 mb 0.00 in0.0 mm 0.00 in0.0 mm 0.00 in0.0 mm
03:37 AM 11.5°F-11.4°C 4.9°F-15.1°C 64% 1.6 mph SW2.6 kmh SW 3.1 mph5.0 kmh 29.67 in1004.7 mb 0.00 in0.0 mm 0.00 in0.0 mm 0.00 in0.0 mm
03:42 AM 11.5°F-11.4°C 4.9°F-15.1°C 64% 0.7 mph SW1.1 kmh SW 1.6 mph2.6 kmh 29.67 in1004.7 mb 0.00 in0.0 mm 0.00 in0.0 mm 0.00 in0.0 mm
03:47 AM 11.3°F-11.5°C 4.7°F-15.2°C 64% 0.7 mph SW1.1 kmh SW 1.6 mph2.6 kmh 29.68 in1005.1 mb 0.00 in0.0 mm 0.00 in0.0 mm 0.00 in0.0 mm
03:52 AM 10.9°F-11.7°C 4.4°F-15.3°C 64% 2.2 mph SW3.5 kmh SW 3.8 mph6.1 kmh 29.68 in1005.1 mb 0.00 in0.0 mm 0.00 in0.0 mm 0.00 in0.0 mm
03:57 AM 10.9°F-11.7°C 4.6°F-15.2°C 65% 1.6 mph 2.6 kmh 4.5 mph7.2 kmh 29.68 in1005.1 mb 0.00 in0.0 mm 0.00 in0.0 mm 0.00 in0.0 mm
04:02 AM 10.8°F-11.8°C 4.4°F-15.3°C 65% 1.6 mph S2.6 kmh S 3.1 mph5.0 kmh 29.68 in1005.1 mb 0.00 in0.0 mm 0.00 in0.0 mm 0.00 in0.0 mm
04:07 AM 10.8°F-11.8°C 4.4°F-15.3°C 65% 0.7 mph 1.1 kmh 3.8 mph6.1 kmh 29.69 in1005.4 mb 0.00 in0.0 mm 0.00 in0.0 mm 0.00 in0.0 mm
04:12 AM 10.6°F-11.9°C 4.3°F-15.4°C 65% 0.7 mph NW1.1 kmh NW 1.6 mph2.6 kmh 29.68 in1005.1 mb 0.00 in0.0 mm 0.00 in0.0 mm 0.00 in0.0 mm
04:17 AM 10.6°F-11.9°C 4.3°F-15.4°C 65% 1.6 mph NW2.6 kmh NW 4.5 mph7.2 kmh 29.69 in1005.4 mb 0.00 in0.0 mm 0.00 in0.0 mm 0.00 in0.0 mm
04:22 AM 10.6°F-11.9°C 4.3°F-15.4°C 65% 0.7 mph 1.1 kmh 2.2 mph3.5 kmh 29.68 in1005.1 mb 0.00 in0.0 mm 0.00 in0.0 mm 0.00 in0.0 mm
04:27 AM 10.4°F-12.0°C 4.1°F-15.5°C 65% 0.7 mph S1.1 kmh S 2.2 mph3.5 kmh 29.69 in1005.4 mb 0.00 in0.0 mm 0.00 in0.0 mm 0.00 in0.0 mm
04:32 AM 10.2°F-12.1°C 2.8°F-16.2°C 60% 0.7 mph S1.1 kmh S 2.2 mph3.5 kmh 29.69 in1005.4 mb 0.00 in0.0 mm 0.00 in0.0 mm 0.00 in0.0 mm
04:37 AM 10.2°F-12.1°C 2.8°F-16.2°C 60% 0.7 mph SW1.1 kmh SW 2.2 mph3.5 kmh 29.69 in1005.4 mb 0.00 in0.0 mm 0.00 in0.0 mm 0.00 in0.0 mm
04:42 AM 10.0°F-12.2°C 2.6°F-16.3°C 60% 1.6 mph W2.6 kmh W 3.1 mph5.0 kmh 29.70 in1005.8 mb 0.00 in0.0 mm 0.00 in0.0 mm 0.00 in0.0 mm
04:47 AM 10.0°F-12.2°C 2.6°F-16.3°C 60% 1.6 mph NE2.6 kmh NE 3.1 mph5.0 kmh 29.70 in1005.8 mb 0.00 in0.0 mm 0.00 in0.0 mm 0.00 in0.0 mm
04:52 AM 9.9°F-12.3°C 2.5°F-16.4°C 60% 0.7 mph W1.1 kmh W 1.6 mph2.6 kmh 29.70 in1005.8 mb 0.00 in0.0 mm 0.00 in0.0 mm 0.00 in0.0 mm
04:57 AM 9.7°F-12.4°C 2.3°F-16.5°C 60% 2.2 mph 3.5 kmh 3.8 mph6.1 kmh 29.70 in1005.8 mb 0.00 in0.0 mm 0.00 in0.0 mm 0.00 in0.0 mm
05:02 AM 9.7°F-12.4°C 2.3°F-16.5°C 60% Calm Calm 1.6 mph2.6 kmh 29.70 in1005.8 mb 0.00 in0.0 mm 0.00 in0.0 mm 0.00 in0.0 mm
05:07 AM 9.5°F-12.5°C 2.1°F-16.6°C 60% 0.7 mph NW1.1 kmh NW 2.2 mph3.5 kmh 29.71 in1006.1 mb 0.00 in0.0 mm 0.00 in0.0 mm 0.00 in0.0 mm
05:12 AM 9.5°F-12.5°C 2.1°F-16.6°C 60% 3.1 mph SE5.0 kmh SE 5.4 mph8.7 kmh 29.71 in1006.1 mb 0.00 in0.0 mm 0.00 in0.0 mm 0.00 in0.0 mm
05:17 AM 9.5°F-12.5°C 2.1°F-16.6°C 60% 1.6 mph 2.6 kmh 5.4 mph8.7 kmh 29.70 in1005.8 mb 0.00 in0.0 mm 0.00 in0.0 mm 0.00 in0.0 mm
05:22 AM 9.3°F-12.6°C 2.0°F-16.7°C 60% 0.7 mph SW1.1 kmh SW 2.2 mph3.5 kmh 29.71 in1006.1 mb 0.00 in0.0 mm 0.00 in0.0 mm 0.00 in0.0 mm
05:27 AM 9.1°F-12.7°C 1.8°F-16.8°C 60% Calm Calm 1.6 mph2.6 kmh 29.71 in1006.1 mb 0.00 in0.0 mm 0.00 in0.0 mm 0.00 in0.0 mm
05:32 AM 9.0°F-12.8°C 1.6°F-16.9°C 60% 0.7 mph S1.1 kmh S 5.4 mph8.7 kmh 29.71 in1006.1 mb 0.00 in0.0 mm 0.00 in0.0 mm 0.00 in0.0 mm
05:37 AM 9.0°F-12.8°C 1.6°F-16.9°C 60% 0.7 mph E1.1 kmh E 2.2 mph3.5 kmh 29.71 in1006.1 mb 0.00 in0.0 mm 0.00 in0.0 mm 0.00 in0.0 mm
05:42 AM 8.8°F-12.9°C 1.4°F-17.0°C 60% 1.6 mph S2.6 kmh S 2.2 mph3.5 kmh 29.72 in1006.4 mb 0.00 in0.0 mm 0.00 in0.0 mm 0.00 in0.0 mm
05:47 AM 8.6°F-13.0°C 1.0°F-17.2°C 59% 2.2 mph SW3.5 kmh SW 3.8 mph6.1 kmh 29.71 in1006.1 mb 0.00 in0.0 mm 0.00 in0.0 mm 0.00 in0.0 mm
05:52 AM 8.8°F-12.9°C 1.4°F-17.0°C 60% 0.7 mph 1.1 kmh 2.2 mph3.5 kmh 29.71 in1006.1 mb 0.00 in0.0 mm 0.00 in0.0 mm 0.00 in0.0 mm
05:57 AM 8.4°F-13.1°C 1.1°F-17.2°C 60% Calm Calm 0.7 mph1.1 kmh 29.70 in1005.8 mb 0.00 in0.0 mm 0.00 in0.0 mm 0.00 in0.0 mm
06:02 AM 8.2°F-13.2°C 0.9°F-17.3°C 60% Calm Calm 0.7 mph1.1 kmh 29.71 in1006.1 mb 0.00 in0.0 mm 0.00 in0.0 mm 0.00 in0.0 mm
06:07 AM 8.1°F-13.3°C 0.8°F-17.3°C 60% 0.7 mph NW1.1 kmh NW 2.2 mph3.5 kmh 29.72 in1006.4 mb 0.00 in0.0 mm 0.00 in0.0 mm 0.00 in0.0 mm
06:12 AM 8.1°F-13.3°C 0.8°F-17.3°C 60% 0.7 mph E1.1 kmh E 2.2 mph3.5 kmh 29.72 in1006.4 mb 0.00 in0.0 mm 0.00 in0.0 mm 0.00 in0.0 mm
06:17 AM 8.1°F-13.3°C 0.8°F-17.3°C 60% 0.7 mph SW1.1 kmh SW 3.1 mph5.0 kmh 29.72 in1006.4 mb 0.00 in0.0 mm 0.00 in0.0 mm 0.00 in0.0 mm
06:22 AM 7.9°F-13.4°C 0.6°F-17.4°C 60% 1.6 mph NW2.6 kmh NW 2.2 mph3.5 kmh 29.72 in1006.4 mb 0.00 in0.0 mm 0.00 in0.0 mm 0.00 in0.0 mm
06:27 AM 7.9°F-13.4°C 0.6°F-17.4°C 60% 0.7 mph SW1.1 kmh SW 1.6 mph2.6 kmh 29.72 in1006.4 mb 0.00 in0.0 mm 0.00 in0.0 mm 0.00 in0.0 mm
06:32 AM 7.7°F-13.5°C 0.4°F-17.6°C 60% 0.7 mph SW1.1 kmh SW 2.2 mph3.5 kmh 29.71 in1006.1 mb 0.00 in0.0 mm 0.00 in0.0 mm 0.00 in0.0 mm
06:37 AM 7.7°F-13.5°C 0.4°F-17.6°C 60% 0.7 mph W1.1 kmh W 2.2 mph3.5 kmh 29.72 in1006.4 mb 0.00 in0.0 mm 0.00 in0.0 mm 0.00 in0.0 mm
06:42 AM 7.5°F-13.6°C 0.3°F-17.6°C 60% Calm Calm 0.7 mph1.1 kmh 29.72 in1006.4 mb 0.00 in0.0 mm 0.00 in0.0 mm 0.00 in0.0 mm
06:47 AM 7.3°F-13.7°C 0.1°F-17.7°C 60% 0.7 mph SW1.1 kmh SW 2.2 mph3.5 kmh 29.73 in1006.8 mb 0.00 in0.0 mm 0.00 in0.0 mm 0.00 in0.0 mm
06:52 AM 7.3°F-13.7°C 0.1°F-17.7°C 60% 1.6 mph SW2.6 kmh SW 3.1 mph5.0 kmh 29.72 in1006.4 mb 0.00 in0.0 mm 0.00 in0.0 mm 0.00 in0.0 mm
06:57 AM 7.2°F-13.8°C -0.1°F-17.8°C 60% 0.7 mph SW1.1 kmh SW 1.6 mph2.6 kmh 29.73 in1006.8 mb 0.00 in0.0 mm 0.00 in0.0 mm 0.00 in0.0 mm
07:02 AM 7.2°F-13.8°C -0.1°F-17.8°C 60% 0.7 mph SE1.1 kmh SE 1.6 mph2.6 kmh 29.73 in1006.8 mb 0.00 in0.0 mm 0.00 in0.0 mm 0.00 in0.0 mm
07:07 AM 7.0°F-13.9°C -0.2°F-17.9°C 60% 0.7 mph 1.1 kmh 2.2 mph3.5 kmh 29.73 in1006.8 mb 0.00 in0.0 mm 0.00 in0.0 mm 0.00 in0.0 mm
07:12 AM 6.8°F-14.0°C -0.4°F-18.0°C 60% Calm Calm 0.7 mph1.1 kmh 29.73 in1006.8 mb 0.00 in0.0 mm 0.00 in0.0 mm 0.00 in0.0 mm
07:17 AM 6.8°F-14.0°C -0.4°F-18.0°C 60% 1.6 mph W2.6 kmh W 2.2 mph3.5 kmh 29.72 in1006.4 mb 0.00 in0.0 mm 0.00 in0.0 mm 0.00 in0.0 mm
07:22 AM 6.4°F-14.2°C -0.5°F-18.1°C 61% Calm Calm -- 29.72 in1006.4 mb 0.00 in0.0 mm 0.00 in0.0 mm 0.00 in0.0 mm
07:27 AM 6.4°F-14.2°C -0.5°F-18.1°C 61% 1.6 mph W2.6 kmh W 2.2 mph3.5 kmh 29.72 in1006.4 mb 0.00 in0.0 mm 0.00 in0.0 mm 0.00 in0.0 mm
07:32 AM 6.4°F-14.2°C -0.5°F-18.1°C 61% Calm Calm 0.7 mph1.1 kmh 29.72 in1006.4 mb 0.00 in0.0 mm 0.00 in0.0 mm 0.00 in0.0 mm
07:37 AM 6.3°F-14.3°C -0.7°F-18.2°C 61% 0.7 mph SW1.1 kmh SW 1.6 mph2.6 kmh 29.73 in1006.8 mb 0.00 in0.0 mm 0.00 in0.0 mm 0.00 in0.0 mm
07:42 AM 6.3°F-14.3°C -0.7°F-18.2°C 61% Calm Calm 1.6 mph2.6 kmh 29.73 in1006.8 mb 0.00 in0.0 mm 0.00 in0.0 mm 0.00 in0.0 mm
07:47 AM 6.1°F-14.4°C -0.9°F-18.3°C 61% 0.7 mph NW1.1 kmh NW 1.6 mph2.6 kmh 29.73 in1006.8 mb 0.00 in0.0 mm 0.00 in0.0 mm 0.00 in0.0 mm
07:52 AM 6.1°F-14.4°C -0.9°F-18.3°C 61% 0.7 mph NE1.1 kmh NE 2.2 mph3.5 kmh 29.73 in1006.8 mb 0.00 in0.0 mm 0.00 in0.0 mm 0.00 in0.0 mm
07:57 AM 6.1°F-14.4°C -0.9°F-18.3°C 61% 0.7 mph SW1.1 kmh SW 3.1 mph5.0 kmh 29.73 in1006.8 mb 0.00 in0.0 mm 0.00 in0.0 mm 0.00 in0.0 mm
08:02 AM 6.3°F-14.3°C -0.7°F-18.2°C 61% Calm Calm 0.7 mph1.1 kmh 29.73 in1006.8 mb 0.00 in0.0 mm 0.00 in0.0 mm 0.00 in0.0 mm
08:07 AM 6.4°F-14.2°C -0.5°F-18.1°C 61% 1.6 mph 2.6 kmh 2.2 mph3.5 kmh 29.73 in1006.8 mb 0.00 in0.0 mm 0.00 in0.0 mm 0.00 in0.0 mm
08:12 AM 7.0°F-13.9°C 0.0°F-17.8°C 61% Calm Calm 1.6 mph2.6 kmh 29.74 in1007.1 mb 0.00 in0.0 mm 0.00 in0.0 mm 0.00 in0.0 mm
08:17 AM 7.3°F-13.7°C 0.3°F-17.6°C 61% 0.7 mph SW1.1 kmh SW 1.6 mph2.6 kmh 29.73 in1006.8 mb 0.00 in0.0 mm 0.00 in0.0 mm 0.00 in0.0 mm
08:22 AM 7.9°F-13.4°C 0.8°F-17.3°C 61% 0.7 mph S1.1 kmh S 1.6 mph2.6 kmh 29.73 in1006.8 mb 0.00 in0.0 mm 0.00 in0.0 mm 0.00 in0.0 mm
08:27 AM 8.4°F-13.1°C 1.3°F-17.1°C 61% 1.6 mph S2.6 kmh S 3.1 mph5.0 kmh 29.73 in1006.8 mb 0.00 in0.0 mm 0.00 in0.0 mm 0.00 in0.0 mm
08:32 AM 9.3°F-12.6°C 1.7°F-16.8°C 59% 0.7 mph W1.1 kmh W 1.6 mph2.6 kmh 29.74 in1007.1 mb 0.00 in0.0 mm 0.00 in0.0 mm 0.00 in0.0 mm
08:37 AM 10.8°F-11.8°C 4.0°F-15.6°C 63% 2.2 mph S3.5 kmh S 3.8 mph6.1 kmh 29.74 in1007.1 mb 0.00 in0.0 mm 0.00 in0.0 mm 0.00 in0.0 mm
08:42 AM 11.8°F-11.2°C 4.8°F-15.1°C 62% Calm Calm 1.6 mph2.6 kmh 29.74 in1007.1 mb 0.00 in0.0 mm 0.00 in0.0 mm 0.00 in0.0 mm
08:47 AM 12.4°F-10.9°C 4.8°F-15.1°C 60% 2.2 mph SW3.5 kmh SW 3.8 mph6.1 kmh 29.74 in1007.1 mb 0.00 in0.0 mm 0.00 in0.0 mm 0.00 in0.0 mm
08:52 AM 12.7°F-10.7°C 4.7°F-15.2°C 58% 1.6 mph S2.6 kmh S 3.1 mph5.0 kmh 29.73 in1006.8 mb 0.00 in0.0 mm 0.00 in0.0 mm 0.00 in0.0 mm
08:57 AM 13.5°F-10.3°C 5.1°F-14.9°C 57% 1.6 mph SW2.6 kmh SW 3.8 mph6.1 kmh 29.73 in1006.8 mb 0.00 in0.0 mm 0.00 in0.0 mm 0.00 in0.0 mm
09:02 AM 14.0°F-10.0°C 5.1°F-14.9°C 55% 2.2 mph SW3.5 kmh SW 3.1 mph5.0 kmh 29.73 in1006.8 mb 0.00 in0.0 mm 0.00 in0.0 mm 0.00 in0.0 mm
09:07 AM 14.4°F-9.8°C 5.2°F-14.9°C 54% 0.7 mph SW1.1 kmh SW 2.2 mph3.5 kmh 29.74 in1007.1 mb 0.00 in0.0 mm 0.00 in0.0 mm 0.00 in0.0 mm
09:12 AM 15.6°F-9.1°C 6.1°F-14.4°C 53% 0.7 mph SW1.1 kmh SW 1.6 mph2.6 kmh 29.73 in1006.8 mb 0.00 in0.0 mm 0.00 in0.0 mm 0.00 in0.0 mm
09:17 AM 16.3°F-8.7°C 6.2°F-14.3°C 51% 0.7 mph S1.1 kmh S 2.2 mph3.5 kmh 29.74 in1007.1 mb 0.00 in0.0 mm 0.00 in0.0 mm 0.00 in0.0 mm
09:22 AM 16.2°F-8.8°C 5.4°F-14.8°C 49% 0.7 mph SW1.1 kmh SW 2.2 mph3.5 kmh 29.74 in1007.1 mb 0.00 in0.0 mm 0.00 in0.0 mm 0.00 in0.0 mm
09:27 AM 15.8°F-9.0°C 4.8°F-15.1°C 48% 2.2 mph SE3.5 kmh SE 3.8 mph6.1 kmh 29.74 in1007.1 mb 0.00 in0.0 mm 0.00 in0.0 mm 0.00 in0.0 mm
09:32 AM 15.6°F-9.1°C 4.9°F-15.1°C 49% 2.2 mph SW3.5 kmh SW 3.8 mph6.1 kmh 29.73 in1006.8 mb 0.00 in0.0 mm 0.00 in0.0 mm 0.00 in0.0 mm
09:37 AM 15.6°F-9.1°C 4.9°F-15.1°C 49% 2.2 mph W3.5 kmh W 4.5 mph7.2 kmh 29.73 in1006.8 mb 0.00 in0.0 mm 0.00 in0.0 mm 0.00 in0.0 mm
09:42 AM 16.0°F-8.9°C 5.3°F-14.8°C 49% 3.1 mph SW5.0 kmh SW 6.0 mph9.7 kmh 29.73 in1006.8 mb 0.00 in0.0 mm 0.00 in0.0 mm 0.00 in0.0 mm
09:47 AM 16.0°F-8.9°C 5.0°F-15.0°C 48% 1.6 mph SW2.6 kmh SW 3.1 mph5.0 kmh 29.73 in1006.8 mb 0.00 in0.0 mm 0.00 in0.0 mm 0.00 in0.0 mm
09:52 AM 16.5°F-8.6°C 5.8°F-14.6°C 49% 3.1 mph WSW5.0 kmh WSW 6.0 mph9.7 kmh 29.74 in1007.1 mb 0.00 in0.0 mm 0.00 in0.0 mm 0.00 in0.0 mm
09:57 AM 16.5°F-8.6°C 5.5°F-14.7°C 48% 1.6 mph SW2.6 kmh SW 3.1 mph5.0 kmh 29.74 in1007.1 mb 0.00 in0.0 mm 0.00 in0.0 mm 0.00 in0.0 mm
10:02 AM 16.5°F-8.6°C 5.5°F-14.7°C 48% 3.8 mph SW6.1 kmh SW 7.6 mph12.2 kmh 29.74 in1007.1 mb 0.00 in0.0 mm 0.00 in0.0 mm 0.00 in0.0 mm
10:07 AM 16.2°F-8.8°C 4.8°F-15.1°C 47% 3.8 mph SW6.1 kmh SW 6.0 mph9.7 kmh 29.74 in1007.1 mb 0.00 in0.0 mm 0.00 in0.0 mm 0.00 in0.0 mm
10:12 AM 16.7°F-8.5°C 5.6°F-14.7°C 48% 4.5 mph WSW7.2 kmh WSW 6.9 mph11.1 kmh 29.74 in1007.1 mb 0.00 in0.0 mm 0.00 in0.0 mm 0.00 in0.0 mm
10:17 AM 16.9°F-8.4°C 5.8°F-14.6°C 48% 2.2 mph 3.5 kmh 4.5 mph7.2 kmh 29.74 in1007.1 mb 0.00 in0.0 mm 0.00 in0.0 mm 0.00 in0.0 mm
10:22 AM 16.9°F-8.4°C 5.5°F-14.7°C 47% 3.1 mph SW5.0 kmh SW 4.5 mph7.2 kmh 29.74 in1007.1 mb 0.00 in0.0 mm 0.00 in0.0 mm 0.00 in0.0 mm
10:27 AM 16.3°F-8.7°C 4.7°F-15.2°C 46% 4.5 mph S7.2 kmh S 6.0 mph9.7 kmh 29.73 in1006.8 mb 0.00 in0.0 mm 0.00 in0.0 mm 0.00 in0.0 mm
10:32 AM 17.1°F-8.3°C 6.0°F-14.4°C 48% 2.2 mph SW3.5 kmh SW 3.8 mph6.1 kmh 29.73 in1006.8 mb 0.00 in0.0 mm 0.00 in0.0 mm 0.00 in0.0 mm
10:37 AM 17.1°F-8.3°C 5.7°F-14.6°C 47% 1.6 mph S2.6 kmh S 2.2 mph3.5 kmh 29.73 in1006.8 mb 0.00 in0.0 mm 0.00 in0.0 mm 0.00 in0.0 mm
10:42 AM 17.2°F-8.2°C 5.8°F-14.6°C 47% 5.4 mph S8.7 kmh S 6.9 mph11.1 kmh 29.73 in1006.8 mb 0.00 in0.0 mm 0.00 in0.0 mm 0.00 in0.0 mm
10:47 AM 17.8°F-7.9°C 6.0°F-14.4°C 46% 2.2 mph W3.5 kmh W 4.5 mph7.2 kmh 29.73 in1006.8 mb 0.00 in0.0 mm 0.00 in0.0 mm 0.00 in0.0 mm
10:52 AM 18.5°F-7.5°C 6.3°F-14.3°C 45% 2.2 mph SW3.5 kmh SW 3.1 mph5.0 kmh 29.73 in1006.8 mb 0.00 in0.0 mm 0.00 in0.0 mm 0.00 in0.0 mm
10:57 AM 18.5°F-7.5°C 6.0°F-14.4°C 44% 4.5 mph S7.2 kmh S 6.0 mph9.7 kmh 29.73 in1006.8 mb 0.00 in0.0 mm 0.00 in0.0 mm 0.00 in0.0 mm
11:02 AM 18.0°F-7.8°C 5.2°F-14.9°C 43% 1.6 mph SSW2.6 kmh SSW 3.8 mph6.1 kmh 29.73 in1006.8 mb 0.00 in0.0 mm 0.00 in0.0 mm 0.00 in0.0 mm
11:07 AM 18.9°F-7.3°C 6.3°F-14.3°C 44% 1.6 mph SW2.6 kmh SW 2.2 mph3.5 kmh 29.73 in1006.8 mb 0.00 in0.0 mm 0.00 in0.0 mm 0.00 in0.0 mm
11:12 AM 20.1°F-6.6°C 8.4°F-13.1°C 47% 1.6 mph SW2.6 kmh SW 3.8 mph6.1 kmh 29.72 in1006.4 mb 0.00 in0.0 mm 0.00 in0.0 mm 0.00 in0.0 mm
11:17 AM 21.4°F-5.9°C 8.9°F-12.8°C 45% 4.5 mph S7.2 kmh S 6.9 mph11.1 kmh 29.72 in1006.4 mb 0.00 in0.0 mm 0.00 in0.0 mm 0.00 in0.0 mm
11:22 AM 19.8°F-6.8°C 7.2°F-13.8°C 44% 2.2 mph SW3.5 kmh SW 4.5 mph7.2 kmh 29.72 in1006.4 mb 0.00 in0.0 mm 0.00 in0.0 mm 0.00 in0.0 mm
11:27 AM 19.4°F-7.0°C 7.2°F-13.8°C 45% 4.5 mph SW7.2 kmh SW 6.9 mph11.1 kmh 29.72 in1006.4 mb 0.00 in0.0 mm 0.00 in0.0 mm 0.00 in0.0 mm
11:32 AM 19.4°F-7.0°C 7.2°F-13.8°C 45% 4.5 mph S7.2 kmh S 6.9 mph11.1 kmh 29.72 in1006.4 mb 0.00 in0.0 mm 0.00 in0.0 mm 0.00 in0.0 mm
11:37 AM 19.6°F-6.9°C 7.3°F-13.7°C 45% 5.4 mph SW8.7 kmh SW 8.3 mph13.4 kmh 29.72 in1006.4 mb 0.00 in0.0 mm 0.00 in0.0 mm 0.00 in0.0 mm
11:42 AM 19.6°F-6.9°C 7.0°F-13.9°C 44% 5.4 mph S8.7 kmh S 7.6 mph12.2 kmh 29.72 in1006.4 mb 0.00 in0.0 mm 0.00 in0.0 mm 0.00 in0.0 mm
11:47 AM 20.1°F-6.6°C 7.5°F-13.6°C 44% 5.4 mph SW8.7 kmh SW 6.9 mph11.1 kmh 29.72 in1006.4 mb 0.00 in0.0 mm 0.00 in0.0 mm 0.00 in0.0 mm
11:52 AM 20.7°F-6.3°C 8.0°F-13.3°C 44% 3.8 mph SW6.1 kmh SW 5.4 mph8.7 kmh 29.72 in1006.4 mb 0.00 in0.0 mm 0.00 in0.0 mm 0.00 in0.0 mm
11:57 AM 21.6°F-5.8°C 8.1°F-13.3°C 42% 4.5 mph SW7.2 kmh SW 6.9 mph11.1 kmh 29.72 in1006.4 mb 0.00 in0.0 mm 0.00 in0.0 mm 0.00 in0.0 mm
12:02 PM 22.8°F-5.1°C 8.9°F-12.8°C 41% 4.5 mph SW7.2 kmh SW 6.9 mph11.1 kmh 29.72 in1006.4 mb 0.00 in0.0 mm 0.00 in0.0 mm 0.00 in0.0 mm
12:07 PM 22.3°F-5.4°C 8.4°F-13.1°C 41% 5.4 mph SW8.7 kmh SW 6.9 mph11.1 kmh 29.71 in1006.1 mb 0.00 in0.0 mm 0.00 in0.0 mm 0.00 in0.0 mm
12:12 PM 21.7°F-5.7°C 7.5°F-13.6°C 40% 4.5 mph SW7.2 kmh SW 6.9 mph11.1 kmh 29.71 in1006.1 mb 0.00 in0.0 mm 0.00 in0.0 mm 0.00 in0.0 mm
12:17 PM 21.6°F-5.8°C 7.7°F-13.5°C 41% 3.8 mph SW6.1 kmh SW 4.5 mph7.2 kmh 29.71 in1006.1 mb 0.00 in0.0 mm 0.00 in0.0 mm 0.00 in0.0 mm
12:22 PM 21.7°F-5.7°C 7.9°F-13.4°C 41% 4.5 mph S7.2 kmh S 6.0 mph9.7 kmh 29.70 in1005.8 mb 0.00 in0.0 mm 0.00 in0.0 mm 0.00 in0.0 mm
12:27 PM 22.5°F-5.3°C 8.5°F-13.1°C 41% 2.2 mph W3.5 kmh W 4.5 mph7.2 kmh 29.70 in1005.8 mb 0.00 in0.0 mm 0.00 in0.0 mm 0.00 in0.0 mm
12:32 PM 23.7°F-4.6°C 9.3°F-12.6°C 40% 2.2 mph SW3.5 kmh SW 3.8 mph6.1 kmh 29.71 in1006.1 mb 0.00 in0.0 mm 0.00 in0.0 mm 0.00 in0.0 mm
12:37 PM 23.0°F-5.0°C 7.5°F-13.6°C 37% 3.8 mph SW6.1 kmh SW 5.4 mph8.7 kmh 29.70 in1005.8 mb 0.00 in0.0 mm 0.00 in0.0 mm 0.00 in0.0 mm
12:42 PM 22.6°F-5.2°C 7.6°F-13.6°C 38% 1.6 mph S2.6 kmh S 2.2 mph3.5 kmh 29.70 in1005.8 mb 0.00 in0.0 mm 0.00 in0.0 mm 0.00 in0.0 mm
12:47 PM 22.3°F-5.4°C 6.5°F-14.2°C 36% 3.8 mph S6.1 kmh S 5.4 mph8.7 kmh 29.70 in1005.8 mb 0.00 in0.0 mm 0.00 in0.0 mm 0.00 in0.0 mm
12:52 PM 21.6°F-5.8°C 5.8°F-14.6°C 36% 1.6 mph SW2.6 kmh SW 3.8 mph6.1 kmh 29.70 in1005.8 mb 0.00 in0.0 mm 0.00 in0.0 mm 0.00 in0.0 mm
12:57 PM 21.6°F-5.8°C 5.8°F-14.6°C 36% 3.8 mph SW6.1 kmh SW 6.0 mph9.7 kmh 29.70 in1005.8 mb 0.00 in0.0 mm 0.00 in0.0 mm 0.00 in0.0 mm
01:02 PM 21.0°F-6.1°C 5.0°F-15.0°C 35% 3.8 mph SW6.1 kmh SW 6.9 mph11.1 kmh 29.69 in1005.4 mb 0.00 in0.0 mm 0.00 in0.0 mm 0.00 in0.0 mm
01:07 PM 21.4°F-5.9°C 4.9°F-15.1°C 34% 2.2 mph SW3.5 kmh SW 3.8 mph6.1 kmh 29.70 in1005.8 mb 0.00 in0.0 mm 0.00 in0.0 mm 0.00 in0.0 mm
01:12 PM 22.8°F-5.1°C 5.7°F-14.6°C 33% 3.1 mph S5.0 kmh S 5.4 mph8.7 kmh 29.69 in1005.4 mb 0.00 in0.0 mm 0.00 in0.0 mm 0.00 in0.0 mm
01:17 PM 24.3°F-4.3°C 5.6°F-14.7°C 30% 1.6 mph S2.6 kmh S 3.1 mph5.0 kmh 29.69 in1005.4 mb 0.00 in0.0 mm 0.00 in0.0 mm 0.00 in0.0 mm
01:22 PM 25.0°F-3.9°C 4.7°F-15.2°C 27% 2.2 mph SW3.5 kmh SW 4.5 mph7.2 kmh 29.69 in1005.4 mb 0.00 in0.0 mm 0.00 in0.0 mm 0.00 in0.0 mm
01:27 PM 24.8°F-4.0°C 5.0°F-15.0°C 28% 3.1 mph SW5.0 kmh SW 4.5 mph7.2 kmh 29.69 in1005.4 mb 0.00 in0.0 mm 0.00 in0.0 mm 0.00 in0.0 mm
01:32 PM 25.2°F-3.8°C 5.3°F-14.8°C 28% 1.6 mph SW2.6 kmh SW 3.1 mph5.0 kmh 29.69 in1005.4 mb 0.00 in0.0 mm 0.00 in0.0 mm 0.00 in0.0 mm
01:37 PM 25.5°F-3.6°C 5.1°F-14.9°C 27% 4.5 mph S7.2 kmh S 6.9 mph11.1 kmh 29.68 in1005.1 mb 0.00 in0.0 mm 0.00 in0.0 mm 0.00 in0.0 mm
01:42 PM 24.6°F-4.1°C 4.9°F-15.1°C 28% 4.5 mph S7.2 kmh S 6.9 mph11.1 kmh 29.69 in1005.4 mb 0.00 in0.0 mm 0.00 in0.0 mm 0.00 in0.0 mm
01:47 PM 24.4°F-4.2°C 4.7°F-15.2°C 28% 6.9 mph S11.1 kmh S 8.3 mph13.4 kmh 29.68 in1005.1 mb 0.00 in0.0 mm 0.00 in0.0 mm 0.00 in0.0 mm
01:52 PM 24.1°F-4.4°C 4.4°F-15.3°C 28% 5.4 mph S8.7 kmh S 8.3 mph13.4 kmh 29.68 in1005.1 mb 0.00 in0.0 mm 0.00 in0.0 mm 0.00 in0.0 mm
01:57 PM 24.1°F-4.4°C 4.4°F-15.3°C 28% 7.6 mph NNW12.2 kmh NNW 11.4 mph18.3 kmh 29.68 in1005.1 mb 0.00 in0.0 mm 0.00 in0.0 mm 0.00 in0.0 mm
02:02 PM 23.5°F-4.7°C 2.4°F-16.4°C 25% 3.8 mph S6.1 kmh S 6.0 mph9.7 kmh 29.68 in1005.1 mb 0.00 in0.0 mm 0.00 in0.0 mm 0.00 in0.0 mm
02:07 PM 23.7°F-4.6°C 3.1°F-16.1°C 26% 4.5 mph S7.2 kmh S 8.3 mph13.4 kmh 29.68 in1005.1 mb 0.00 in0.0 mm 0.00 in0.0 mm 0.00 in0.0 mm
02:12 PM 23.7°F-4.6°C 2.5°F-16.4°C 25% 4.5 mph SE7.2 kmh SE 6.9 mph11.1 kmh 29.67 in1004.7 mb 0.00 in0.0 mm 0.00 in0.0 mm 0.00 in0.0 mm
02:17 PM 23.5°F-4.7°C 2.4°F-16.4°C 25% 5.4 mph SW8.7 kmh SW 6.9 mph11.1 kmh 29.67 in1004.7 mb 0.00 in0.0 mm 0.00 in0.0 mm 0.00 in0.0 mm
02:22 PM 23.9°F-4.5°C 2.7°F-16.3°C 25% 7.6 mph S12.2 kmh S 9.8 mph15.8 kmh 29.67 in1004.7 mb 0.00 in0.0 mm 0.00 in0.0 mm 0.00 in0.0 mm
02:27 PM 24.1°F-4.4°C 1.6°F-16.9°C 23% 10.7 mph SW17.2 kmh SW 13.6 mph21.9 kmh 29.67 in1004.7 mb 0.00 in0.0 mm 0.00 in0.0 mm 0.00 in0.0 mm
02:32 PM 24.3°F-4.3°C 0.5°F-17.5°C 21% 7.6 mph SW12.2 kmh SW 13.0 mph20.9 kmh 29.67 in1004.7 mb 0.00 in0.0 mm 0.00 in0.0 mm 0.00 in0.0 mm
02:37 PM 24.6°F-4.1°C 0.8°F-17.3°C 21% 3.8 mph SW6.1 kmh SW 6.0 mph9.7 kmh 29.67 in1004.7 mb 0.00 in0.0 mm 0.00 in0.0 mm 0.00 in0.0 mm
02:42 PM 25.0°F-3.9°C -0.3°F-17.9°C 19% 3.8 mph SW6.1 kmh SW 8.3 mph13.4 kmh 29.65 in1004.1 mb 0.00 in0.0 mm 0.00 in0.0 mm 0.00 in0.0 mm
02:47 PM 25.3°F-3.7°C 0.0°F-17.8°C 19% 3.8 mph W6.1 kmh W 6.0 mph9.7 kmh 29.66 in1004.4 mb 0.00 in0.0 mm 0.00 in0.0 mm 0.00 in0.0 mm
02:52 PM 25.7°F-3.5°C 1.0°F-17.2°C 20% 3.8 mph SW6.1 kmh SW 6.0 mph9.7 kmh 29.65 in1004.1 mb 0.00 in0.0 mm 0.00 in0.0 mm 0.00 in0.0 mm
02:57 PM 25.9°F-3.4°C 1.2°F-17.1°C 20% 3.1 mph S5.0 kmh S 5.4 mph8.7 kmh 29.65 in1004.1 mb 0.00 in0.0 mm 0.00 in0.0 mm 0.00 in0.0 mm
03:02 PM 25.3°F-3.7°C 1.4°F-17.0°C 21% 4.5 mph S7.2 kmh S 5.4 mph8.7 kmh 29.65 in1004.1 mb 0.00 in0.0 mm 0.00 in0.0 mm 0.00 in0.0 mm
03:07 PM 24.8°F-4.0°C 1.6°F-16.9°C 22% 4.5 mph S7.2 kmh S 6.9 mph11.1 kmh 29.65 in1004.1 mb 0.00 in0.0 mm 0.00 in0.0 mm 0.00 in0.0 mm
03:12 PM 24.4°F-4.2°C 1.9°F-16.7°C 23% 6.9 mph S11.1 kmh S 7.6 mph12.2 kmh 29.65 in1004.1 mb 0.00 in0.0 mm 0.00 in0.0 mm 0.00 in0.0 mm
03:17 PM 24.6°F-4.1°C 2.1°F-16.6°C 23% 3.8 mph SW6.1 kmh SW 5.4 mph8.7 kmh 29.64 in1003.7 mb 0.00 in0.0 mm 0.00 in0.0 mm 0.00 in0.0 mm
03:22 PM 24.6°F-4.1°C 2.1°F-16.6°C 23% 3.8 mph S6.1 kmh S 6.0 mph9.7 kmh 29.65 in1004.1 mb 0.00 in0.0 mm 0.00 in0.0 mm 0.00 in0.0 mm
03:27 PM 24.6°F-4.1°C 2.1°F-16.6°C 23% 3.1 mph SE5.0 kmh SE 3.8 mph6.1 kmh 29.64 in1003.7 mb 0.00 in0.0 mm 0.00 in0.0 mm 0.00 in0.0 mm
03:32 PM 24.4°F-4.2°C 1.9°F-16.7°C 23% 5.4 mph SW8.7 kmh SW 6.9 mph11.1 kmh 29.63 in1003.4 mb 0.00 in0.0 mm 0.00 in0.0 mm 0.00 in0.0 mm
03:37 PM 24.3°F-4.3°C 1.8°F-16.8°C 23% 5.4 mph SW8.7 kmh SW 7.6 mph12.2 kmh 29.63 in1003.4 mb 0.00 in0.0 mm 0.00 in0.0 mm 0.00 in0.0 mm
03:42 PM 24.3°F-4.3°C 1.8°F-16.8°C 23% 8.3 mph S13.4 kmh S 10.7 mph17.2 kmh 29.63 in1003.4 mb 0.00 in0.0 mm 0.00 in0.0 mm 0.00 in0.0 mm
03:47 PM 24.3°F-4.3°C 1.2°F-17.1°C 22% 9.8 mph S15.8 kmh S 14.5 mph23.3 kmh 29.63 in1003.4 mb 0.00 in0.0 mm 0.00 in0.0 mm 0.00 in0.0 mm
03:52 PM 24.3°F-4.3°C 0.5°F-17.5°C 21% 6.9 mph SW11.1 kmh SW 9.2 mph14.8 kmh 29.63 in1003.4 mb 0.00 in0.0 mm 0.00 in0.0 mm 0.00 in0.0 mm
03:57 PM 24.4°F-4.2°C 0.0°F-17.8°C 20% 5.4 mph S8.7 kmh S 8.3 mph13.4 kmh 29.62 in1003.0 mb 0.00 in0.0 mm 0.00 in0.0 mm 0.00 in0.0 mm
04:02 PM 24.4°F-4.2°C 0.0°F-17.8°C 20% 6.0 mph S9.7 kmh S 8.3 mph13.4 kmh 29.61 in1002.7 mb 0.00 in0.0 mm 0.00 in0.0 mm 0.00 in0.0 mm
04:07 PM 24.4°F-4.2°C 0.0°F-17.8°C 20% 4.5 mph S7.2 kmh S 5.4 mph8.7 kmh 29.61 in1002.7 mb 0.00 in0.0 mm 0.00 in0.0 mm 0.00 in0.0 mm
04:12 PM 24.4°F-4.2°C 0.0°F-17.8°C 20% 5.4 mph S8.7 kmh S 6.9 mph11.1 kmh 29.61 in1002.7 mb 0.00 in0.0 mm 0.00 in0.0 mm 0.00 in0.0 mm
04:17 PM 24.3°F-4.3°C 0.5°F-17.5°C 21% 3.8 mph S6.1 kmh S 4.5 mph7.2 kmh 29.61 in1002.7 mb 0.00 in0.0 mm 0.00 in0.0 mm 0.00 in0.0 mm
04:22 PM 24.3°F-4.3°C 1.2°F-17.1°C 22% 3.8 mph SE6.1 kmh SE 5.4 mph8.7 kmh 29.60 in1002.4 mb 0.00 in0.0 mm 0.00 in0.0 mm 0.00 in0.0 mm
04:27 PM 24.3°F-4.3°C 1.8°F-16.8°C 23% 3.8 mph S6.1 kmh S 6.9 mph11.1 kmh 29.60 in1002.4 mb 0.00 in0.0 mm 0.00 in0.0 mm 0.00 in0.0 mm
04:32 PM 24.1°F-4.4°C 2.2°F-16.6°C 24% 6.0 mph SE9.7 kmh SE 8.3 mph13.4 kmh 29.60 in1002.4 mb 0.00 in0.0 mm 0.00 in0.0 mm 0.00 in0.0 mm
04:37 PM 23.9°F-4.5°C 2.7°F-16.3°C 25% 5.4 mph S8.7 kmh S 8.3 mph13.4 kmh 29.60 in1002.4 mb 0.00 in0.0 mm 0.00 in0.0 mm 0.00 in0.0 mm
04:42 PM 23.9°F-4.5°C 3.2°F-16.0°C 26% 4.5 mph S7.2 kmh S 7.6 mph12.2 kmh 29.59 in1002.0 mb 0.00 in0.0 mm 0.00 in0.0 mm 0.00 in0.0 mm
04:47 PM 23.7°F-4.6°C 3.1°F-16.1°C 26% 4.5 mph SE7.2 kmh SE 6.0 mph9.7 kmh 29.60 in1002.4 mb 0.00 in0.0 mm 0.00 in0.0 mm 0.00 in0.0 mm
04:52 PM 23.7°F-4.6°C 3.1°F-16.1°C 26% 4.5 mph E7.2 kmh E 6.0 mph9.7 kmh 29.59 in1002.0 mb 0.00 in0.0 mm 0.00 in0.0 mm 0.00 in0.0 mm
04:57 PM 23.7°F-4.6°C 3.1°F-16.1°C 26% 6.0 mph WNW9.7 kmh WNW 9.8 mph15.8 kmh 29.59 in1002.0 mb 0.00 in0.0 mm 0.00 in0.0 mm 0.00 in0.0 mm
05:02 PM 23.5°F-4.7°C 2.9°F-16.2°C 26% 3.1 mph SE5.0 kmh SE 5.4 mph8.7 kmh 29.59 in1002.0 mb 0.00 in0.0 mm 0.00 in0.0 mm 0.00 in0.0 mm
05:07 PM 23.5°F-4.7°C 3.4°F-15.9°C 27% 5.4 mph SE8.7 kmh SE 9.8 mph15.8 kmh 29.59 in1002.0 mb 0.00 in0.0 mm 0.00 in0.0 mm 0.00 in0.0 mm
05:12 PM 23.4°F-4.8°C 2.8°F-16.2°C 26% 5.4 mph S8.7 kmh S 7.6 mph12.2 kmh 29.58 in1001.7 mb 0.00 in0.0 mm 0.00 in0.0 mm 0.00 in0.0 mm
05:17 PM 23.4°F-4.8°C 2.8°F-16.2°C 26% 3.1 mph SW5.0 kmh SW 5.4 mph8.7 kmh 29.59 in1002.0 mb 0.00 in0.0 mm 0.00 in0.0 mm 0.00 in0.0 mm
05:22 PM 23.4°F-4.8°C 2.8°F-16.2°C 26% 6.9 mph S11.1 kmh S 10.7 mph17.2 kmh 29.59 in1002.0 mb 0.00 in0.0 mm 0.00 in0.0 mm 0.00 in0.0 mm
05:27 PM 23.2°F-4.9°C 2.6°F-16.3°C 26% 6.0 mph SW9.7 kmh SW 9.8 mph15.8 kmh 29.58 in1001.7 mb 0.00 in0.0 mm 0.00 in0.0 mm 0.00 in0.0 mm
05:32 PM 23.2°F-4.9°C 2.1°F-16.6°C 25% 4.5 mph SW7.2 kmh SW 8.3 mph13.4 kmh 29.59 in1002.0 mb 0.00 in0.0 mm 0.00 in0.0 mm 0.00 in0.0 mm
05:37 PM 23.4°F-4.8°C 1.6°F-16.9°C 24% 6.0 mph S9.7 kmh S 8.3 mph13.4 kmh 29.58 in1001.7 mb 0.00 in0.0 mm 0.00 in0.0 mm 0.00 in0.0 mm
05:42 PM 23.4°F-4.8°C 1.0°F-17.2°C 23% 6.9 mph S11.1 kmh S 9.2 mph14.8 kmh 29.59 in1002.0 mb 0.00 in0.0 mm 0.00 in0.0 mm 0.00 in0.0 mm
05:47 PM 23.4°F-4.8°C 1.0°F-17.2°C 23% 7.6 mph S12.2 kmh S 17.4 mph28.0 kmh 29.59 in1002.0 mb 0.00 in0.0 mm 0.00 in0.0 mm 0.00 in0.0 mm
05:52 PM 23.4°F-4.8°C 1.0°F-17.2°C 23% 6.9 mph S11.1 kmh S 13.0 mph20.9 kmh 29.58 in1001.7 mb 0.00 in0.0 mm 0.00 in0.0 mm 0.00 in0.0 mm
05:57 PM 23.4°F-4.8°C 2.2°F-16.6°C 25% 7.6 mph S12.2 kmh S 12.1 mph19.5 kmh 29.58 in1001.7 mb 0.00 in0.0 mm 0.00 in0.0 mm 0.00 in0.0 mm
06:02 PM 23.4°F-4.8°C 2.8°F-16.2°C 26% 6.9 mph SW11.1 kmh SW 7.6 mph12.2 kmh 29.58 in1001.7 mb 0.00 in0.0 mm 0.00 in0.0 mm 0.00 in0.0 mm
06:07 PM 23.2°F-4.9°C 2.6°F-16.3°C 26% 6.9 mph S11.1 kmh S 9.8 mph15.8 kmh 29.57 in1001.4 mb 0.00 in0.0 mm 0.00 in0.0 mm 0.00 in0.0 mm
06:12 PM 23.2°F-4.9°C 3.1°F-16.1°C 27% 4.5 mph SW7.2 kmh SW 6.0 mph9.7 kmh 29.57 in1001.4 mb 0.00 in0.0 mm 0.00 in0.0 mm 0.00 in0.0 mm
06:17 PM 23.0°F-5.0°C 4.5°F-15.3°C 30% 10.7 mph SW17.2 kmh SW 14.5 mph23.3 kmh 29.57 in1001.4 mb 0.00 in0.0 mm 0.00 in0.0 mm 0.00 in0.0 mm
06:22 PM 23.2°F-4.9°C 4.6°F-15.2°C 30% 5.4 mph S8.7 kmh S 7.6 mph12.2 kmh 29.57 in1001.4 mb 0.00 in0.0 mm 0.00 in0.0 mm 0.00 in0.0 mm
06:27 PM 23.0°F-5.0°C 5.0°F-15.0°C 31% 6.0 mph SW9.7 kmh SW 8.3 mph13.4 kmh 29.57 in1001.4 mb 0.00 in0.0 mm 0.00 in0.0 mm 0.00 in0.0 mm
06:32 PM 23.2°F-4.9°C 5.1°F-14.9°C 31% 4.5 mph S7.2 kmh S 5.4 mph8.7 kmh 29.57 in1001.4 mb 0.00 in0.0 mm 0.00 in0.0 mm 0.00 in0.0 mm
06:37 PM 23.2°F-4.9°C 5.6°F-14.7°C 32% 7.6 mph SW12.2 kmh SW 11.4 mph18.3 kmh 29.57 in1001.4 mb 0.00 in0.0 mm 0.00 in0.0 mm 0.00 in0.0 mm
06:42 PM 23.0°F-5.0°C 5.4°F-14.8°C 32% 9.2 mph SE14.8 kmh SE 13.0 mph20.9 kmh 29.57 in1001.4 mb 0.00 in0.0 mm 0.00 in0.0 mm 0.00 in0.0 mm
06:43 PM 23.0°F-5.0°C 5.9°F-14.5°C 33% 6.0 mph S9.7 kmh S 8.3 mph13.4 kmh 29.57 in1001.4 mb 0.00 in0.0 mm 0.00 in0.0 mm 0.00 in0.0 mm
06:48 PM 23.0°F-5.0°C 6.3°F-14.3°C 34% 4.5 mph SW7.2 kmh SW 7.6 mph12.2 kmh 29.57 in1001.4 mb 0.00 in0.0 mm 0.00 in0.0 mm 0.00 in0.0 mm
06:49 PM 23.0°F-5.0°C 5.9°F-14.5°C 33% 6.0 mph S9.7 kmh S 7.6 mph12.2 kmh 29.57 in1001.4 mb 0.00 in0.0 mm 0.00 in0.0 mm 0.00 in0.0 mm
06:53 PM 22.6°F-5.2°C 8.7°F-12.9°C 41% 6.0 mph S9.7 kmh S 9.2 mph14.8 kmh 29.57 in1001.4 mb 0.00 in0.0 mm 0.00 in0.0 mm 0.00 in0.0 mm
06:58 PM 22.5°F-5.3°C 9.3°F-12.6°C 43% 7.6 mph S12.2 kmh S 9.8 mph15.8 kmh 29.57 in1001.4 mb 0.00 in0.0 mm 0.00 in0.0 mm 0.00 in0.0 mm
06:59 PM 22.1°F-5.5°C 10.3°F-12.1°C 47% 11.4 mph S18.3 kmh S 14.5 mph23.3 kmh 29.57 in1001.4 mb 0.00 in0.0 mm 0.00 in0.0 mm 0.00 in0.0 mm
07:04 PM 21.7°F-5.7°C 11.2°F-11.6°C 51% 9.2 mph S14.8 kmh S 13.6 mph21.9 kmh 29.57 in1001.4 mb 0.00 in0.0 mm 0.00 in0.0 mm 0.00 in0.0 mm
07:09 PM 21.6°F-5.8°C 11.3°F-11.5°C 52% 6.9 mph S11.1 kmh S 8.3 mph13.4 kmh 29.56 in1001.0 mb 0.00 in0.0 mm 0.00 in0.0 mm 0.00 in0.0 mm
07:14 PM 21.6°F-5.8°C 11.3°F-11.5°C 52% 4.5 mph SE7.2 kmh SE 6.9 mph11.1 kmh 29.56 in1001.0 mb 0.00 in0.0 mm 0.00 in0.0 mm 0.00 in0.0 mm
07:15 PM 21.6°F-5.8°C 11.6°F-11.3°C 53% 6.0 mph SW9.7 kmh SW 9.8 mph15.8 kmh 29.56 in1001.0 mb 0.00 in0.0 mm 0.00 in0.0 mm 0.00 in0.0 mm
07:20 PM 21.4°F-5.9°C 11.4°F-11.4°C 53% 9.2 mph SW14.8 kmh SW 12.1 mph19.5 kmh 29.55 in1000.7 mb 0.00 in0.0 mm 0.00 in0.0 mm 0.00 in0.0 mm
07:21 PM 21.4°F-5.9°C 11.4°F-11.4°C 53% 9.2 mph SW14.8 kmh SW 11.4 mph18.3 kmh 29.56 in1001.0 mb 0.00 in0.0 mm 0.00 in0.0 mm 0.00 in0.0 mm
07:25 PM 21.2°F-6.0°C 11.5°F-11.4°C 54% 3.8 mph SW6.1 kmh SW 6.0 mph9.7 kmh 29.55 in1000.7 mb 0.00 in0.0 mm 0.00 in0.0 mm 0.00 in0.0 mm
07:30 PM 21.0°F-6.1°C 12.4°F-10.9°C 58% 7.6 mph S12.2 kmh S 10.7 mph17.2 kmh 29.55 in1000.7 mb 0.00 in0.0 mm 0.00 in0.0 mm 0.00 in0.0 mm
07:35 PM 20.7°F-6.3°C 12.9°F-10.6°C 61% 5.4 mph S8.7 kmh S 7.6 mph12.2 kmh 29.55 in1000.7 mb 0.00 in0.0 mm 0.00 in0.0 mm 0.00 in0.0 mm
07:36 PM 21.0°F-6.1°C 12.4°F-10.9°C 58% 7.6 mph S12.2 kmh S 10.7 mph17.2 kmh 29.55 in1000.7 mb 0.00 in0.0 mm 0.00 in0.0 mm 0.00 in0.0 mm
07:40 PM 20.3°F-6.5°C 13.0°F-10.6°C 63% 8.3 mph S13.4 kmh S 12.1 mph19.5 kmh 29.55 in1000.7 mb 0.00 in0.0 mm 0.00 in0.0 mm 0.00 in0.0 mm
07:45 PM 20.1°F-6.6°C 13.1°F-10.5°C 64% 9.2 mph S14.8 kmh S 13.0 mph20.9 kmh 29.54 in1000.3 mb 0.00 in0.0 mm 0.00 in0.0 mm 0.00 in0.0 mm
07:47 PM 20.1°F-6.6°C 13.1°F-10.5°C 64% 4.5 mph S7.2 kmh S 6.0 mph9.7 kmh 29.55 in1000.7 mb 0.00 in0.0 mm 0.00 in0.0 mm 0.00 in0.0 mm
07:52 PM 20.1°F-6.6°C 13.3°F-10.4°C 65% 5.4 mph SE8.7 kmh SE 8.3 mph13.4 kmh 29.55 in1000.7 mb 0.00 in0.0 mm 0.00 in0.0 mm 0.00 in0.0 mm
07:53 PM 20.1°F-6.6°C 13.3°F-10.4°C 65% 6.0 mph S9.7 kmh S 7.6 mph12.2 kmh 29.54 in1000.3 mb 0.00 in0.0 mm 0.00 in0.0 mm 0.00 in0.0 mm
07:57 PM 19.9°F-6.7°C 13.6°F-10.2°C 67% 5.4 mph S8.7 kmh S 9.8 mph15.8 kmh 29.54 in1000.3 mb 0.00 in0.0 mm 0.00 in0.0 mm 0.00 in0.0 mm
08:02 PM 19.8°F-6.8°C 13.7°F-10.2°C 68% 6.0 mph S9.7 kmh S 9.2 mph14.8 kmh 29.54 in1000.3 mb 0.00 in0.0 mm 0.00 in0.0 mm 0.00 in0.0 mm
08:03 PM 19.8°F-6.8°C 13.9°F-10.1°C 69% 5.4 mph S8.7 kmh S 6.9 mph11.1 kmh 29.54 in1000.3 mb 0.00 in0.0 mm 0.00 in0.0 mm 0.00 in0.0 mm
08:08 PM 19.8°F-6.8°C 14.3°F-9.8°C 71% 4.5 mph S7.2 kmh S 10.7 mph17.2 kmh 29.54 in1000.3 mb 0.00 in0.0 mm 0.00 in0.0 mm 0.00 in0.0 mm
08:09 PM 19.8°F-6.8°C 14.1°F-9.9°C 70% 3.8 mph W6.1 kmh W 6.0 mph9.7 kmh 29.54 in1000.3 mb 0.00 in0.0 mm 0.00 in0.0 mm 0.00 in0.0 mm
08:13 PM 19.6°F-6.9°C 14.4°F-9.8°C 72% 6.0 mph SW9.7 kmh SW 8.3 mph13.4 kmh 29.54 in1000.3 mb 0.00 in0.0 mm 0.00 in0.0 mm 0.00 in0.0 mm
08:18 PM 19.6°F-6.9°C 14.4°F-9.8°C 72% 6.0 mph S9.7 kmh S 9.2 mph14.8 kmh 29.54 in1000.3 mb 0.00 in0.0 mm 0.00 in0.0 mm 0.00 in0.0 mm
08:19 PM 19.6°F-6.9°C 14.4°F-9.8°C 72% 4.5 mph S7.2 kmh S 6.0 mph9.7 kmh 29.54 in1000.3 mb 0.00 in0.0 mm 0.00 in0.0 mm 0.00 in0.0 mm
08:24 PM 19.6°F-6.9°C 14.6°F-9.7°C 73% 7.6 mph S12.2 kmh S 9.8 mph15.8 kmh 29.54 in1000.3 mb 0.00 in0.0 mm 0.00 in0.0 mm 0.00 in0.0 mm
08:25 PM 19.6°F-6.9°C 14.4°F-9.8°C 72% 3.8 mph WSW6.1 kmh WSW 7.6 mph12.2 kmh 29.54 in1000.3 mb 0.00 in0.0 mm 0.00 in0.0 mm 0.00 in0.0 mm
08:29 PM 19.6°F-6.9°C 14.6°F-9.7°C 73% 3.1 mph S5.0 kmh S 6.9 mph11.1 kmh 29.54 in1000.3 mb 0.00 in0.0 mm 0.00 in0.0 mm 0.00 in0.0 mm
08:34 PM 19.6°F-6.9°C 14.6°F-9.7°C 73% 5.4 mph S8.7 kmh S 9.2 mph14.8 kmh 29.53 in1000.0 mb 0.00 in0.0 mm 0.00 in0.0 mm 0.00 in0.0 mm
08:35 PM 19.4°F-7.0°C 14.4°F-9.8°C 73% 3.8 mph S6.1 kmh S 6.0 mph9.7 kmh 29.53 in1000.0 mb 0.00 in0.0 mm 0.00 in0.0 mm 0.00 in0.0 mm
08:40 PM 19.4°F-7.0°C 14.4°F-9.8°C 73% 3.1 mph S5.0 kmh S 6.9 mph11.1 kmh 29.53 in1000.0 mb 0.00 in0.0 mm 0.00 in0.0 mm 0.00 in0.0 mm
08:41 PM 19.4°F-7.0°C 14.4°F-9.8°C 73% 3.1 mph S5.0 kmh S 4.5 mph7.2 kmh 29.54 in1000.3 mb 0.00 in0.0 mm 0.00 in0.0 mm 0.00 in0.0 mm
08:45 PM 19.4°F-7.0°C 14.6°F-9.7°C 74% 3.8 mph S6.1 kmh S 6.9 mph11.1 kmh 29.53 in1000.0 mb 0.00 in0.0 mm 0.00 in0.0 mm 0.00 in0.0 mm
08:50 PM 19.4°F-7.0°C 14.6°F-9.7°C 74% 6.9 mph SSW11.1 kmh SSW 9.8 mph15.8 kmh 29.54 in1000.3 mb 0.00 in0.0 mm 0.00 in0.0 mm 0.00 in0.0 mm
08:55 PM 19.4°F-7.0°C 14.6°F-9.7°C 74% 9.2 mph S14.8 kmh S 10.7 mph17.2 kmh 29.53 in1000.0 mb 0.00 in0.0 mm 0.00 in0.0 mm 0.00 in0.0 mm
08:56 PM 19.4°F-7.0°C 14.6°F-9.7°C 74% 6.9 mph SSW11.1 kmh SSW 9.8 mph15.8 kmh 29.54 in1000.3 mb 0.00 in0.0 mm 0.00 in0.0 mm 0.00 in0.0 mm
09:00 PM 19.4°F-7.0°C 14.6°F-9.7°C 74% 5.4 mph WSW8.7 kmh WSW 6.9 mph11.1 kmh 29.53 in1000.0 mb 0.00 in0.0 mm 0.00 in0.0 mm 0.00 in0.0 mm
09:05 PM 19.4°F-7.0°C 14.6°F-9.7°C 74% 5.4 mph S8.7 kmh S 7.6 mph12.2 kmh 29.53 in1000.0 mb 0.00 in0.0 mm 0.00 in0.0 mm 0.00 in0.0 mm
09:07 PM 19.4°F-7.0°C 14.6°F-9.7°C 74% 3.8 mph S6.1 kmh S 6.0 mph9.7 kmh 29.52 in999.7 mb 0.00 in0.0 mm 0.00 in0.0 mm 0.00 in0.0 mm
09:12 PM 19.4°F-7.0°C 14.6°F-9.7°C 74% 6.0 mph N9.7 kmh N 7.6 mph12.2 kmh 29.53 in1000.0 mb 0.00 in0.0 mm 0.00 in0.0 mm 0.00 in0.0 mm
09:13 PM 19.4°F-7.0°C 14.6°F-9.7°C 74% 12.1 mph SW19.5 kmh SW 14.5 mph23.3 kmh 29.53 in1000.0 mb 0.00 in0.0 mm 0.00 in0.0 mm 0.00 in0.0 mm
09:17 PM 19.4°F-7.0°C 14.6°F-9.7°C 74% 6.0 mph SW9.7 kmh SW 8.3 mph13.4 kmh 29.52 in999.7 mb 0.00 in0.0 mm 0.00 in0.0 mm 0.00 in0.0 mm
09:22 PM 19.4°F-7.0°C 14.6°F-9.7°C 74% 7.6 mph S12.2 kmh S 9.8 mph15.8 kmh 29.53 in1000.0 mb 0.00 in0.0 mm 0.00 in0.0 mm 0.00 in0.0 mm
09:23 PM 19.4°F-7.0°C 14.6°F-9.7°C 74% 8.3 mph SW13.4 kmh SW 10.7 mph17.2 kmh 29.52 in999.7 mb 0.00 in0.0 mm 0.00 in0.0 mm 0.00 in0.0 mm
09:28 PM 19.4°F-7.0°C 14.6°F-9.7°C 74% 5.4 mph S8.7 kmh S 8.3 mph13.4 kmh 29.52 in999.7 mb 0.00 in0.0 mm 0.00 in0.0 mm 0.00 in0.0 mm
09:29 PM 19.4°F-7.0°C 14.6°F-9.7°C 74% 4.5 mph SW7.2 kmh SW 6.0 mph9.7 kmh 29.52 in999.7 mb 0.00 in0.0 mm 0.00 in0.0 mm 0.00 in0.0 mm
09:33 PM 19.6°F-6.9°C 14.8°F-9.6°C 74% 6.0 mph S9.7 kmh S 11.4 mph18.3 kmh 29.52 in999.7 mb 0.00 in0.0 mm 0.00 in0.0 mm 0.00 in0.0 mm
09:38 PM 19.4°F-7.0°C 14.6°F-9.7°C 74% 7.6 mph S12.2 kmh S 11.4 mph18.3 kmh 29.52 in999.7 mb 0.00 in0.0 mm 0.00 in0.0 mm 0.00 in0.0 mm
09:39 PM 19.4°F-7.0°C 14.6°F-9.7°C 74% 6.0 mph SE9.7 kmh SE 13.6 mph21.9 kmh 29.52 in999.7 mb 0.00 in0.0 mm 0.00 in0.0 mm 0.00 in0.0 mm
09:44 PM 19.4°F-7.0°C 14.6°F-9.7°C 74% 7.6 mph S12.2 kmh S 12.1 mph19.5 kmh 29.52 in999.7 mb 0.00 in0.0 mm 0.00 in0.0 mm 0.00 in0.0 mm
09:45 PM 19.4°F-7.0°C 14.6°F-9.7°C 74% 6.0 mph SW9.7 kmh SW 9.8 mph15.8 kmh 29.52 in999.7 mb 0.00 in0.0 mm 0.00 in0.0 mm 0.00 in0.0 mm
09:49 PM 19.4°F-7.0°C 14.6°F-9.7°C 74% 5.4 mph S8.7 kmh S 9.8 mph15.8 kmh 29.52 in999.7 mb 0.00 in0.0 mm 0.00 in0.0 mm 0.00 in0.0 mm
09:54 PM 19.4°F-7.0°C 14.6°F-9.7°C 74% 4.5 mph S7.2 kmh S 6.0 mph9.7 kmh 29.51 in999.3 mb 0.00 in0.0 mm 0.00 in0.0 mm 0.00 in0.0 mm
09:55 PM 19.4°F-7.0°C 14.4°F-9.8°C 73% 4.5 mph S7.2 kmh S 6.9 mph11.1 kmh 29.52 in999.7 mb 0.00 in0.0 mm 0.00 in0.0 mm 0.00 in0.0 mm
10:00 PM 19.4°F-7.0°C 14.6°F-9.7°C 74% 7.6 mph SE12.2 kmh SE 10.7 mph17.2 kmh 29.51 in999.3 mb 0.00 in0.0 mm 0.00 in0.0 mm 0.00 in0.0 mm
10:01 PM 19.4°F-7.0°C 14.4°F-9.8°C 73% 6.0 mph S9.7 kmh S 10.7 mph17.2 kmh 29.52 in999.7 mb 0.00 in0.0 mm 0.00 in0.0 mm 0.00 in0.0 mm
10:04 PM 19.4°F-7.0°C 14.6°F-9.7°C 74% 6.0 mph SW9.7 kmh SW 10.7 mph17.2 kmh 29.51 in999.3 mb 0.00 in0.0 mm 0.00 in0.0 mm 0.00 in0.0 mm
10:05 PM 19.4°F-7.0°C 14.6°F-9.7°C 74% 6.9 mph S11.1 kmh S 11.4 mph18.3 kmh 29.51 in999.3 mb 0.00 in0.0 mm 0.00 in0.0 mm 0.00 in0.0 mm
10:09 PM 19.4°F-7.0°C 14.6°F-9.7°C 74% 6.0 mph SW9.7 kmh SW 8.3 mph13.4 kmh 29.51 in999.3 mb 0.00 in0.0 mm 0.00 in0.0 mm 0.00 in0.0 mm
10:10 PM 19.4°F-7.0°C 14.6°F-9.7°C 74% 4.5 mph S7.2 kmh S 7.6 mph12.2 kmh 29.51 in999.3 mb 0.00 in0.0 mm 0.00 in0.0 mm 0.00 in0.0 mm
10:15 PM 19.4°F-7.0°C 14.6°F-9.7°C 74% 3.8 mph SW6.1 kmh SW 6.0 mph9.7 kmh 29.50 in999.0 mb 0.00 in0.0 mm 0.00 in0.0 mm 0.00 in0.0 mm
10:16 PM 19.4°F-7.0°C 14.6°F-9.7°C 74% 4.5 mph S7.2 kmh S 7.6 mph12.2 kmh 29.51 in999.3 mb 0.00 in0.0 mm 0.00 in0.0 mm 0.00 in0.0 mm
10:20 PM 19.4°F-7.0°C 14.6°F-9.7°C 74% 3.8 mph SE6.1 kmh SE 6.0 mph9.7 kmh 29.50 in999.0 mb 0.00 in0.0 mm 0.00 in0.0 mm 0.00 in0.0 mm
10:25 PM 19.4°F-7.0°C 14.6°F-9.7°C 74% 3.1 mph S5.0 kmh S 4.5 mph7.2 kmh 29.50 in999.0 mb 0.00 in0.0 mm 0.00 in0.0 mm 0.00 in0.0 mm
10:27 PM 19.6°F-6.9°C 14.8°F-9.6°C 74% 3.8 mph S6.1 kmh S 4.5 mph7.2 kmh 29.50 in999.0 mb 0.00 in0.0 mm 0.00 in0.0 mm 0.00 in0.0 mm
10:32 PM 19.6°F-6.9°C 14.8°F-9.6°C 74% 3.8 mph S6.1 kmh S 6.0 mph9.7 kmh 29.51 in999.3 mb 0.00 in0.0 mm 0.00 in0.0 mm 0.00 in0.0 mm
10:33 PM 19.6°F-6.9°C 14.8°F-9.6°C 74% 5.4 mph S8.7 kmh S 6.9 mph11.1 kmh 29.50 in999.0 mb 0.00 in0.0 mm 0.00 in0.0 mm 0.00 in0.0 mm
10:37 PM 19.6°F-6.9°C 14.8°F-9.6°C 74% 4.5 mph S7.2 kmh S 7.6 mph12.2 kmh 29.50 in999.0 mb 0.00 in0.0 mm 0.00 in0.0 mm 0.00 in0.0 mm
10:41 PM 19.6°F-6.9°C 14.8°F-9.6°C 74% 6.0 mph S9.7 kmh S 9.2 mph14.8 kmh 29.50 in999.0 mb 0.00 in0.0 mm 0.00 in0.0 mm 0.00 in0.0 mm
10:42 PM 19.6°F-6.9°C 14.8°F-9.6°C 74% 2.2 mph SW3.5 kmh SW 3.8 mph6.1 kmh 29.50 in999.0 mb 0.00 in0.0 mm 0.00 in0.0 mm 0.00 in0.0 mm
10:46 PM 19.6°F-6.9°C 14.8°F-9.6°C 74% 3.8 mph S6.1 kmh S 8.3 mph13.4 kmh 29.50 in999.0 mb 0.00 in0.0 mm 0.00 in0.0 mm 0.00 in0.0 mm
10:47 PM 19.6°F-6.9°C 14.8°F-9.6°C 74% 3.8 mph S6.1 kmh S 6.0 mph9.7 kmh 29.50 in999.0 mb 0.00 in0.0 mm 0.00 in0.0 mm 0.00 in0.0 mm
10:52 PM 19.4°F-7.0°C 14.6°F-9.7°C 74% 3.8 mph SW6.1 kmh SW 6.0 mph9.7 kmh 29.49 in998.6 mb 0.00 in0.0 mm 0.00 in0.0 mm 0.00 in0.0 mm
10:57 PM 19.4°F-7.0°C 14.6°F-9.7°C 74% 5.4 mph SW8.7 kmh SW 8.3 mph13.4 kmh 29.50 in999.0 mb 0.00 in0.0 mm 0.00 in0.0 mm 0.00 in0.0 mm
11:01 PM 19.6°F-6.9°C 14.8°F-9.6°C 74% 5.4 mph SW8.7 kmh SW 6.0 mph9.7 kmh 29.49 in998.6 mb 0.00 in0.0 mm 0.00 in0.0 mm 0.00 in0.0 mm
11:02 PM 19.4°F-7.0°C 14.6°F-9.7°C 74% 6.0 mph N9.7 kmh N 8.3 mph13.4 kmh 29.49 in998.6 mb 0.00 in0.0 mm 0.00 in0.0 mm 0.00 in0.0 mm
11:06 PM 19.4°F-7.0°C 14.6°F-9.7°C 74% 3.1 mph SW5.0 kmh SW 4.5 mph7.2 kmh 29.49 in998.6 mb 0.00 in0.0 mm 0.00 in0.0 mm 0.00 in0.0 mm
11:07 PM 19.4°F-7.0°C 14.6°F-9.7°C 74% 6.0 mph S9.7 kmh S 8.3 mph13.4 kmh 29.49 in998.6 mb 0.00 in0.0 mm 0.00 in0.0 mm 0.00 in0.0 mm
11:12 PM 19.4°F-7.0°C 14.6°F-9.7°C 74% 3.1 mph S5.0 kmh S 5.4 mph8.7 kmh 29.49 in998.6 mb 0.00 in0.0 mm 0.00 in0.0 mm 0.00 in0.0 mm
11:17 PM 19.4°F-7.0°C 14.8°F-9.6°C 75% 2.2 mph SW3.5 kmh SW 3.8 mph6.1 kmh 29.49 in998.6 mb 0.00 in0.0 mm 0.00 in0.0 mm 0.00 in0.0 mm
11:21 PM 19.4°F-7.0°C 14.8°F-9.6°C 75% 4.5 mph S7.2 kmh S 7.6 mph12.2 kmh 29.48 in998.3 mb 0.00 in0.0 mm 0.00 in0.0 mm 0.00 in0.0 mm
11:22 PM 19.4°F-7.0°C 14.8°F-9.6°C 75% 3.8 mph S6.1 kmh S 4.5 mph7.2 kmh 29.49 in998.6 mb 0.00 in0.0 mm 0.00 in0.0 mm 0.00 in0.0 mm
11:26 PM 19.6°F-6.9°C 15.0°F-9.4°C 75% 3.1 mph S5.0 kmh S 5.4 mph8.7 kmh 29.48 in998.3 mb 0.00 in0.0 mm 0.00 in0.0 mm 0.00 in0.0 mm
11:27 PM 19.6°F-6.9°C 15.0°F-9.4°C 75% 4.5 mph WSW7.2 kmh WSW 6.0 mph9.7 kmh 29.48 in998.3 mb 0.00 in0.0 mm 0.00 in0.0 mm 0.00 in0.0 mm
11:32 PM 19.6°F-6.9°C 15.0°F-9.4°C 75% 3.1 mph SW5.0 kmh SW 4.5 mph7.2 kmh 29.48 in998.3 mb 0.00 in0.0 mm 0.00 in0.0 mm 0.00 in0.0 mm
11:37 PM 19.4°F-7.0°C 14.8°F-9.6°C 75% 3.8 mph S6.1 kmh S 7.6 mph12.2 kmh 29.48 in998.3 mb 0.00 in0.0 mm 0.00 in0.0 mm 0.00 in0.0 mm
11:41 PM 19.4°F-7.0°C 14.8°F-9.6°C 75% 3.1 mph SE5.0 kmh SE 5.4 mph8.7 kmh 29.47 in998.0 mb 0.00 in0.0 mm 0.00 in0.0 mm 0.00 in0.0 mm
11:42 PM 19.4°F-7.0°C 14.8°F-9.6°C 75% 5.4 mph S8.7 kmh S 6.9 mph11.1 kmh 29.48 in998.3 mb 0.00 in0.0 mm 0.00 in0.0 mm 0.00 in0.0 mm
11:46 PM 19.4°F-7.0°C 14.8°F-9.6°C 75% 2.2 mph SW3.5 kmh SW 3.8 mph6.1 kmh 29.48 in998.3 mb 0.00 in0.0 mm 0.00 in0.0 mm 0.00 in0.0 mm
11:47 PM 19.4°F-7.0°C 14.8°F-9.6°C 75% 3.8 mph SE6.1 kmh SE 6.0 mph9.7 kmh 29.48 in998.3 mb 0.00 in0.0 mm 0.00 in0.0 mm 0.00 in0.0 mm
11:52 PM 19.4°F-7.0°C 14.8°F-9.6°C 75% 3.1 mph S5.0 kmh S 4.5 mph7.2 kmh 29.48 in998.3 mb 0.00 in0.0 mm 0.00 in0.0 mm 0.00 in0.0 mm
11:57 PM 19.4°F-7.0°C 14.8°F-9.6°C 75% 2.2 mph S3.5 kmh S 3.1 mph5.0 kmh 29.48 in998.3 mb 0.00 in0.0 mm 0.00 in0.0 mm 0.00 in0.0 mm